Time;durP1;ratioP1;P1;durP2;ratioP2;P2;SDS_P1;SDS_P2;PMS_P1;PMS_P2;Temp;Humidity;BMP_temperature;BMP_pressure;BME280_temperature;BME280_humidity;BME280_pressure;Samples;Min_cycle;Max_cycle;Signal;HPM_P1;HPM_P2
2022/10/10 00:00:39;;;;;;;8.63;5.95;;;12.90;82.00;;;;;;5012814;28;20053;-61
2022/10/10 00:03:06;;;;;;;7.75;5.60;;;12.90;82.20;;;;;;5014528;28;20025;-61
2022/10/10 00:05:31;;;;;;;7.85;6.07;;;12.90;82.30;;;;;;5014955;28;20505;-60
2022/10/10 00:07:57;;;;;;;10.93;6.38;;;12.80;82.20;;;;;;5015179;28;20087;-61
2022/10/10 00:10:23;;;;;;;9.20;6.50;;;12.90;82.20;;;;;;5014016;28;20038;-61
2022/10/10 00:12:49;;;;;;;7.50;5.88;;;12.90;82.20;;;;;;5012405;28;20102;-61
2022/10/10 00:15:15;;;;;;;8.18;6.40;;;12.90;82.20;;;;;;5013859;28;20485;-61
2022/10/10 00:17:42;;;;;;;7.25;6.18;;;12.90;82.40;;;;;;5013540;28;20056;-61
2022/10/10 00:20:13;;;;;;;8.23;6.95;;;12.90;82.50;;;;;;5015804;28;20037;-60
2022/10/10 00:22:39;;;;;;;8.50;6.25;;;12.90;82.60;;;;;;5011878;28;20232;-60
2022/10/10 00:25:06;;;;;;;7.25;6.10;;;12.90;82.70;;;;;;5014575;28;20045;-61
2022/10/10 00:27:32;;;;;;;8.65;6.82;;;12.90;82.80;;;;;;5011940;28;20421;-61
2022/10/10 00:29:58;;;;;;;8.18;6.93;;;12.90;82.80;;;;;;5014445;28;20037;-61
2022/10/10 00:32:24;;;;;;;10.75;7.18;;;12.90;83.00;;;;;;5011717;28;20065;-60
2022/10/10 00:34:50;;;;;;;7.95;7.15;;;12.90;83.20;;;;;;5015391;28;20461;-59
2022/10/10 00:37:15;;;;;;;8.15;7.03;;;12.90;83.40;;;;;;5009855;28;20492;-61
2022/10/10 00:39:41;;;;;;;10.63;7.57;;;12.90;83.40;;;;;;5013977;28;20095;-60
2022/10/10 00:42:10;;;;;;;9.48;6.47;;;12.90;83.60;;;;;;5014656;28;20091;-59
2022/10/10 00:44:37;;;;;;;10.90;7.28;;;12.90;83.80;;;;;;5011566;28;20025;-60
2022/10/10 00:47:03;;;;;;;9.93;7.53;;;13.00;83.80;;;;;;5015041;28;20037;-60
2022/10/10 00:49:30;;;;;;;8.25;7.28;;;12.90;83.80;;;;;;5010845;28;20493;-60
2022/10/10 00:51:58;;;;;;;8.15;7.10;;;12.90;84.00;;;;;;5016193;28;20049;-60
2022/10/10 00:54:26;;;;;;;8.07;7.10;;;12.90;84.00;;;;;;5016447;28;20042;-59
2022/10/10 00:56:59;;;;;;;7.78;7.00;;;13.00;83.90;;;;;;5019073;28;20249;-61
2022/10/10 00:59:26;;;;;;;7.90;7.10;;;13.00;84.00;;;;;;5018600;28;20037;-60
2022/10/10 01:01:52;;;;;;;8.02;7.22;;;13.00;84.00;;;;;;5022846;28;20041;-60
2022/10/10 01:04:38;;;;;;;8.82;7.38;;;13.00;84.00;;;;;;5017423;28;20037;-59
2022/10/10 01:07:11;;;;;;;8.13;7.15;;;13.00;85.60;;;;;;5019552;28;20037;-61
2022/10/10 01:09:40;;;;;;;8.25;7.45;;;12.90;84.40;;;;;;5017098;28;20133;-59
2022/10/10 01:12:19;;;;;;;7.80;7.00;;;12.90;84.30;;;;;;5015542;28;20034;-60
2022/10/10 01:15:06;;;;;;;7.82;7.03;;;12.90;84.70;;;;;;5015629;28;20049;-61
2022/10/10 01:17:51;;;;;;;9.73;7.82;;;12.90;84.90;;;;;;5014681;28;20383;-61
2022/10/10 01:20:22;;;;;;;;;;;12.90;84.50;;;;;;5015142;28;20076;-61
2022/10/10 01:23:07;;;;;;;9.05;7.22;;;13.00;85.20;;;;;;5017008;28;19951;-59
2022/10/10 01:26:10;;;;;;;8.40;7.32;;;13.00;85.00;;;;;;5016872;28;20064;-59
2022/10/10 01:28:54;;;;;;;9.38;7.10;;;13.00;85.00;;;;;;5013623;28;20099;-59
2022/10/10 01:31:23;;;;;;;9.07;7.10;;;13.00;84.50;;;;;;5017529;28;20046;-60
2022/10/10 01:34:15;;;;;;;7.85;7.05;;;13.00;84.50;;;;;;5017366;28;20033;-60
2022/10/10 01:37:07;;;;;;;9.55;7.18;;;13.00;85.00;;;;;;5017122;28;20034;-61
2022/10/10 01:39:48;;;;;;;8.63;6.95;;;13.00;84.80;;;;;;5016790;28;20041;-60
2022/10/10 01:42:21;;;;;;;8.02;6.80;;;13.10;84.80;;;;;;5016433;28;20575;-61
2022/10/10 01:44:47;;;;;;;8.23;7.30;;;13.00;84.60;;;;;;5015861;28;20038;-60
2022/10/10 01:47:13;;;;;;;8.25;6.50;;;13.10;84.50;;;;;;5017890;28;20120;-60
2022/10/10 01:49:43;;;;;;;8.07;7.10;;;13.10;84.50;;;;;;5018716;28;20034;-60
2022/10/10 01:52:50;;;;;;;7.95;7.22;;;13.10;84.60;;;;;;5017891;28;20053;-59
2022/10/10 01:55:46;;;;;;;7.40;6.68;;;13.10;85.00;;;;;;4987409;28;20037;-59
2022/10/10 01:58:37;;;;;;;7.40;6.70;;;13.10;84.70;;;;;;5017478;28;20041;-60
2022/10/10 02:01:13;;;;;;;9.88;7.53;;;13.20;84.50;;;;;;5016138;28;20033;-60
2022/10/10 02:03:44;;;;;;;9.40;7.18;;;13.20;84.60;;;;;;5014557;28;20022;-60
2022/10/10 02:06:27;;;;;;;8.05;7.25;;;13.10;84.50;;;;;;5015668;28;20041;-61
2022/10/10 02:08:58;;;;;;;7.82;6.65;;;13.20;84.60;;;;;;5014861;28;20041;-60
2022/10/10 02:11:25;;;;;;;9.90;7.72;;;13.20;84.50;;;;;;5014025;28;20037;-59
2022/10/10 02:13:59;;;;;;;9.27;7.70;;;13.20;84.40;;;;;;5014380;28;20759;-60
2022/10/10 02:16:29;;;;;;;8.73;7.13;;;13.20;84.50;;;;;;5016071;28;20409;-60
2022/10/10 02:18:58;;;;;;;8.68;7.75;;;13.10;84.30;;;;;;5015493;28;20099;-60
2022/10/10 02:21:25;;;;;;;8.05;7.25;;;13.20;84.40;;;;;;5015611;28;20045;-61
2022/10/10 02:23:54;;;;;;;9.35;7.75;;;13.20;84.50;;;;;;5015184;28;20409;-61
2022/10/10 02:26:22;;;;;;;8.68;7.78;;;13.20;84.60;;;;;;5017020;28;20034;-60
2022/10/10 02:28:47;;;;;;;9.90;7.22;;;13.20;84.50;;;;;;5015144;28;20382;-60
2022/10/10 02:31:25;;;;;;;9.05;8.10;;;13.20;84.30;;;;;;5013488;28;20049;-59
2022/10/10 02:33:59;;;;;;;10.00;7.75;;;13.20;84.50;;;;;;5017404;28;20631;-60
2022/10/10 02:36:26;;;;;;;8.48;7.35;;;13.20;84.50;;;;;;5014170;28;20041;-60
2022/10/10 02:38:54;;;;;;;9.40;8.00;;;13.10;84.30;;;;;;5016559;28;20034;-60
2022/10/10 02:41:21;;;;;;;10.38;8.45;;;13.10;84.30;;;;;;5015507;28;20121;-60
2022/10/10 02:43:48;;;;;;;9.32;8.30;;;13.10;84.60;;;;;;5014284;28;20042;-61
2022/10/10 02:46:14;;;;;;;9.20;8.30;;;13.10;84.80;;;;;;5016548;28;20554;-61
2022/10/10 02:48:40;;;;;;;9.38;8.40;;;13.10;85.00;;;;;;5014492;28;20393;-61
2022/10/10 02:51:06;;;;;;;9.85;8.32;;;13.10;85.00;;;;;;5015664;28;20077;-61
2022/10/10 02:53:35;;;;;;;10.70;8.77;;;13.10;85.10;;;;;;5014492;28;20584;-60
2022/10/10 02:56:01;;;;;;;10.18;8.57;;;13.10;85.20;;;;;;5015366;28;20436;-61
2022/10/10 02:58:26;;;;;;;10.50;9.02;;;13.00;85.20;;;;;;5016325;28;21226;-61
2022/10/10 03:00:52;;;;;;;10.65;8.52;;;13.00;85.30;;;;;;5013932;28;20449;-60
2022/10/10 03:03:17;;;;;;;11.40;8.55;;;13.00;85.50;;;;;;5018004;28;20041;-61
2022/10/10 03:05:43;;;;;;;10.50;8.70;;;13.00;85.50;;;;;;5012706;28;20509;-61
2022/10/10 03:08:09;;;;;;;9.85;8.85;;;13.00;85.70;;;;;;5014806;28;20181;-61
2022/10/10 03:10:35;;;;;;;10.93;8.50;;;13.00;85.80;;;;;;5017549;28;20489;-61
2022/10/10 03:13:00;;;;;;;10.95;9.00;;;13.10;85.90;;;;;;5015454;28;20049;-61
2022/10/10 03:15:26;;;;;;;9.98;8.90;;;13.00;85.90;;;;;;5014301;28;20033;-61
2022/10/10 03:17:51;;;;;;;10.65;9.00;;;13.00;86.00;;;;;;5014913;28;20164;-60
2022/10/10 03:20:17;;;;;;;10.63;9.35;;;13.00;86.20;;;;;;5015612;28;20040;-59
2022/10/10 03:22:42;;;;;;;10.63;8.95;;;13.00;86.30;;;;;;5016667;28;20037;-60
2022/10/10 03:25:08;;;;;;;10.70;9.60;;;13.00;86.50;;;;;;5013197;28;20038;-61
2022/10/10 03:27:34;;;;;;;11.00;9.85;;;13.00;86.60;;;;;;5014058;28;20080;-60
2022/10/10 03:29:59;;;;;;;9.98;8.98;;;13.00;86.70;;;;;;5011624;28;20112;-60
2022/10/10 03:32:25;;;;;;;10.60;9.27;;;13.00;86.70;;;;;;5013709;28;20482;-60
2022/10/10 03:34:51;;;;;;;11.00;9.50;;;13.00;86.70;;;;;;5016167;28;20049;-61
2022/10/10 03:37:16;;;;;;;11.18;9.40;;;13.10;86.80;;;;;;5013484;28;20033;-61
2022/10/10 03:39:42;;;;;;;10.27;9.18;;;13.10;86.70;;;;;;5015453;28;20034;-62
2022/10/10 03:42:07;;;;;;;10.88;9.77;;;13.10;86.80;;;;;;5013381;28;20037;-61
2022/10/10 03:44:33;;;;;;;12.73;10.00;;;13.10;86.90;;;;;;4992955;28;20120;-60
2022/10/10 03:46:58;;;;;;;11.05;9.85;;;13.10;86.90;;;;;;5014383;28;20113;-60
2022/10/10 03:49:24;;;;;;;10.32;9.00;;;13.10;86.90;;;;;;5015142;28;20062;-61
2022/10/10 03:51:50;;;;;;;10.27;9.20;;;13.10;86.90;;;;;;5015201;28;20055;-61
2022/10/10 03:54:15;;;;;;;10.57;9.48;;;13.10;86.90;;;;;;5015145;28;20463;-60
2022/10/10 03:56:41;;;;;;;12.02;10.18;;;13.10;86.90;;;;;;5012611;28;20528;-59
2022/10/10 03:59:06;;;;;;;10.68;9.57;;;13.10;86.90;;;;;;5013928;28;20054;-61
2022/10/10 04:01:32;;;;;;;10.55;9.32;;;13.10;86.90;;;;;;5012064;28;20104;-60
2022/10/10 04:03:58;;;;;;;11.00;9.75;;;13.10;87.00;;;;;;5014234;28;20362;-60
2022/10/10 04:06:24;;;;;;;15.02;10.48;;;13.20;87.10;;;;;;5011649;28;20048;-61
2022/10/10 04:08:50;;;;;;;11.10;9.95;;;13.10;87.10;;;;;;5013228;28;20124;-61
2022/10/10 04:11:15;;;;;;;12.88;10.00;;;13.10;87.10;;;;;;5014527;28;20052;-61
2022/10/10 04:13:41;;;;;;;10.93;9.60;;;13.10;87.10;;;;;;5015079;28;20029;-61
2022/10/10 04:16:06;;;;;;;11.25;10.07;;;13.10;87.10;;;;;;5013773;28;20037;-60
2022/10/10 04:18:32;;;;;;;10.52;9.43;;;13.10;87.10;;;;;;5013139;28;20501;-59
2022/10/10 04:21:01;;;;;;;10.82;9.45;;;13.10;87.10;;;;;;5013918;28;20041;-60
2022/10/10 04:23:27;;;;;;;11.57;9.98;;;13.10;87.30;;;;;;5015229;28;20061;-60
2022/10/10 04:25:52;;;;;;;10.95;9.40;;;13.10;87.20;;;;;;5013068;28;20140;-60
2022/10/10 04:28:18;;;;;;;10.15;8.65;;;13.10;87.20;;;;;;5013574;28;20079;-60
2022/10/10 04:30:45;;;;;;;10.02;8.90;;;13.20;87.30;;;;;;5013974;28;20049;-60
2022/10/10 04:33:11;;;;;;;10.35;9.27;;;13.20;87.30;;;;;;5016053;28;20048;-61
2022/10/10 04:35:37;;;;;;;11.68;9.77;;;13.20;87.20;;;;;;5014491;28;20041;-60
2022/10/10 04:38:02;;;;;;;11.25;9.77;;;13.20;87.30;;;;;;5012750;28;20042;-61
2022/10/10 04:40:28;;;;;;;10.55;9.25;;;13.20;87.10;;;;;;5012762;28;20386;-59
2022/10/10 04:42:54;;;;;;;11.73;9.02;;;13.20;87.10;;;;;;5013671;28;20128;-61
2022/10/10 04:45:20;;;;;;;13.57;9.10;;;13.20;87.10;;;;;;5011890;28;20044;-58
2022/10/10 04:47:46;;;;;;;13.68;9.50;;;13.20;87.10;;;;;;5013380;28;20037;-60
2022/10/10 04:50:11;;;;;;;11.70;9.18;;;13.20;87.10;;;;;;5013700;28;20038;-60
2022/10/10 04:52:37;;;;;;;15.50;9.40;;;13.10;87.10;;;;;;5015767;28;20033;-60
2022/10/10 04:55:03;;;;;;;11.27;9.32;;;13.20;87.10;;;;;;5013076;28;20095;-61
2022/10/10 04:57:29;;;;;;;11.68;9.48;;;13.10;87.10;;;;;;5013931;28;20095;-61
2022/10/10 04:59:54;;;;;;;12.30;9.32;;;13.20;87.40;;;;;;5013565;28;20033;-60
2022/10/10 05:02:20;;;;;;;10.65;9.55;;;13.20;87.30;;;;;;5015073;28;20061;-60
2022/10/10 05:04:45;;;;;;;11.18;9.60;;;13.10;87.30;;;;;;5012458;28;20033;-60
2022/10/10 05:07:11;;;;;;;10.02;9.02;;;13.10;87.30;;;;;;5013288;28;20116;-60
2022/10/10 05:09:36;;;;;;;13.68;9.77;;;13.20;87.40;;;;;;5012198;28;20064;-60
2022/10/10 05:12:02;;;;;;;12.43;10.13;;;13.10;87.30;;;;;;5014223;28;20050;-59
2022/10/10 05:14:28;;;;;;;11.25;9.63;;;13.10;87.40;;;;;;5010556;28;20030;-61
2022/10/10 05:16:53;;;;;;;14.63;9.93;;;13.10;87.40;;;;;;5014581;28;20523;-61
2022/10/10 05:19:19;;;;;;;11.60;9.77;;;13.10;87.50;;;;;;5013183;28;20037;-57
2022/10/10 05:21:44;;;;;;;11.65;10.00;;;13.10;87.60;;;;;;5014630;28;20045;-60
2022/10/10 05:24:10;;;;;;;16.38;10.45;;;13.10;87.60;;;;;;5011139;28;20121;-60
2022/10/10 05:26:36;;;;;;;11.25;9.93;;;13.10;87.70;;;;;;5011205;28;20118;-60
2022/10/10 05:29:02;;;;;;;11.98;10.60;;;13.10;87.80;;;;;;5010409;28;20145;-61
2022/10/10 05:31:27;;;;;;;12.73;10.40;;;13.10;87.90;;;;;;5013760;28;20037;-61
2022/10/10 05:33:53;;;;;;;12.38;10.57;;;13.10;88.00;;;;;;5012793;28;20092;-59
2022/10/10 05:36:19;;;;;;;12.13;10.85;;;13.10;88.00;;;;;;5017675;28;20037;-58
2022/10/10 05:38:45;;;;;;;11.95;10.60;;;13.10;88.10;;;;;;5015574;28;20041;-59
2022/10/10 05:41:11;;;;;;;13.77;10.43;;;13.10;88.20;;;;;;5017126;28;20041;-60
2022/10/10 05:43:37;;;;;;;12.52;11.05;;;13.10;88.30;;;;;;5019715;28;20461;-60
2022/10/10 05:46:03;;;;;;;13.45;10.95;;;13.10;88.30;;;;;;5015315;28;20080;-60
2022/10/10 05:48:28;;;;;;;12.38;10.57;;;13.10;88.30;;;;;;5016202;28;20041;-59
2022/10/10 05:50:56;;;;;;;14.50;10.55;;;13.10;88.50;;;;;;5017891;28;20417;-60
2022/10/10 05:53:23;;;;;;;19.63;14.95;;;13.10;88.60;;;;;;5014361;28;20289;-59
2022/10/10 05:55:50;;;;;;;15.38;11.48;;;13.10;88.60;;;;;;5014646;28;20528;-61
2022/10/10 05:58:16;;;;;;;13.25;11.15;;;13.10;88.60;;;;;;5017123;28;20048;-59
2022/10/10 06:00:43;;;;;;;13.73;11.70;;;13.20;88.70;;;;;;5013163;28;20038;-58
2022/10/10 06:03:12;;;;;;;14.00;11.98;;;13.20;88.80;;;;;;5016568;28;20393;-60
2022/10/10 06:05:39;;;;;;;16.98;14.40;;;13.20;88.80;;;;;;5017488;28;20034;-59
2022/10/10 06:08:06;;;;;;;18.27;14.02;;;13.20;88.80;;;;;;5016632;28;20064;-59
2022/10/10 06:10:36;;;;;;;15.45;11.80;;;13.20;88.90;;;;;;5016631;28;20038;-61
2022/10/10 06:13:03;;;;;;;12.60;11.25;;;13.30;89.10;;;;;;5016856;28;20088;-60
2022/10/10 06:15:28;;;;;;;13.18;11.20;;;13.30;88.80;;;;;;5016180;28;20041;-60
2022/10/10 06:17:54;;;;;;;13.07;10.98;;;13.30;88.80;;;;;;5014452;28;20074;-60
2022/10/10 06:20:20;;;;;;;14.45;11.10;;;13.40;88.90;;;;;;5014521;28;20527;-60
2022/10/10 06:22:45;;;;;;;13.68;11.23;;;13.40;88.90;;;;;;5014275;28;20099;-59
2022/10/10 06:25:11;;;;;;;15.00;11.27;;;13.40;88.80;;;;;;5016188;28;20042;-59
2022/10/10 06:27:36;;;;;;;13.80;10.90;;;13.50;88.80;;;;;;5013946;28;20045;-61
2022/10/10 06:30:03;;;;;;;11.82;10.38;;;13.50;88.70;;;;;;5014246;28;20045;-60
2022/10/10 06:32:28;;;;;;;16.95;11.40;;;13.60;88.80;;;;;;5018152;28;20036;-61
2022/10/10 06:34:54;;;;;;;12.75;10.95;;;13.60;88.60;;;;;;5014524;28;20029;-61
2022/10/10 06:37:20;;;;;;;13.77;11.10;;;13.60;88.60;;;;;;5016372;28;20038;-61
2022/10/10 06:39:45;;;;;;;12.93;10.27;;;13.60;88.60;;;;;;5015195;28;20041;-60
2022/10/10 06:42:11;;;;;;;14.88;11.45;;;13.70;88.50;;;;;;5014672;28;20148;-60
2022/10/10 06:44:36;;;;;;;12.85;11.13;;;13.70;88.40;;;;;;5015587;28;20252;-62
2022/10/10 06:47:02;;;;;;;21.73;16.00;;;13.80;88.50;;;;;;5015823;28;20038;-60
2022/10/10 06:49:28;;;;;;;19.70;14.05;;;13.80;88.30;;;;;;5015921;28;20112;-61
2022/10/10 06:51:54;;;;;;;12.80;11.40;;;13.80;88.30;;;;;;5016722;28;20045;-61
2022/10/10 06:54:19;;;;;;;13.10;11.57;;;13.90;88.30;;;;;;5014328;28;20663;-61
2022/10/10 06:56:45;;;;;;;17.50;13.95;;;13.90;89.00;;;;;;5012379;28;20042;-60
2022/10/10 06:59:11;;;;;;;13.20;11.10;;;14.00;88.10;;;;;;5015386;28;20612;-59
2022/10/10 07:01:37;;;;;;;11.35;10.20;;;14.00;88.10;;;;;;5014296;28;20136;-60
2022/10/10 07:04:02;;;;;;;15.20;11.70;;;14.00;88.00;;;;;;5013616;28;20037;-61
2022/10/10 07:06:28;;;;;;;14.38;10.52;;;14.10;88.00;;;;;;5015035;28;20054;-61
2022/10/10 07:08:54;;;;;;;15.43;10.95;;;14.10;88.70;;;;;;5014384;28;20034;-61
2022/10/10 07:11:21;;;;;;;14.02;11.05;;;14.10;87.80;;;;;;5015209;28;20064;-61
2022/10/10 07:13:48;;;;;;;21.17;12.20;;;14.10;87.80;;;;;;5010194;28;20111;-61
2022/10/10 07:16:13;;;;;;;12.98;11.02;;;14.20;88.00;;;;;;5014341;28;20048;-60
2022/10/10 07:18:39;;;;;;;16.17;11.05;;;14.20;87.90;;;;;;5012876;28;20524;-61
2022/10/10 07:21:05;;;;;;;13.27;10.88;;;14.20;88.00;;;;;;5013866;28;20261;-60
2022/10/10 07:23:31;;;;;;;12.77;11.05;;;14.20;87.90;;;;;;5015078;28;20160;-61
2022/10/10 07:25:59;;;;;;;15.18;10.65;;;14.20;87.80;;;;;;5016093;28;20115;-60
2022/10/10 07:28:25;;;;;;;12.07;10.30;;;14.30;88.00;;;;;;5011515;28;20697;-58
2022/10/10 07:30:58;;;;;;;13.73;11.93;;;14.30;88.00;;;;;;5013003;28;20048;-60
2022/10/10 07:33:24;;;;;;;12.98;10.98;;;14.30;88.10;;;;;;5016277;28;20052;-60
2022/10/10 07:35:53;;;;;;;15.05;12.35;;;14.30;88.00;;;;;;5016605;28;20038;-61
2022/10/10 07:38:19;;;;;;;14.07;11.70;;;14.40;88.20;;;;;;5016804;28;20034;-60
2022/10/10 07:40:45;;;;;;;15.30;11.90;;;14.40;88.10;;;;;;5015492;28;20048;-59
2022/10/10 07:43:10;;;;;;;12.90;10.57;;;14.60;88.30;;;;;;5017378;28;20045;-59
2022/10/10 07:45:36;;;;;;;16.45;11.68;;;14.50;88.30;;;;;;5013391;28;20041;-60
2022/10/10 07:48:02;;;;;;;14.45;11.32;;;14.60;88.30;;;;;;5015008;28;20599;-60
2022/10/10 07:50:28;;;;;;;14.57;11.15;;;14.60;88.20;;;;;;5014851;28;20468;-61
2022/10/10 07:52:53;;;;;;;12.65;10.10;;;14.70;88.20;;;;;;5014596;28;20137;-61
2022/10/10 07:55:19;;;;;;;14.00;9.95;;;14.80;88.30;;;;;;5015076;28;20410;-60
2022/10/10 07:57:44;;;;;;;15.70;11.70;;;14.80;88.20;;;;;;5014297;28;20034;-59
2022/10/10 08:00:10;;;;;;;11.80;9.63;;;14.90;88.30;;;;;;5012456;28;20026;-59
2022/10/10 08:02:36;;;;;;;12.27;10.25;;;14.90;88.20;;;;;;5009013;28;20061;-59
2022/10/10 08:05:02;;;;;;;18.63;12.15;;;15.00;88.10;;;;;;5013024;28;20055;-62
2022/10/10 08:07:27;;;;;;;12.90;9.80;;;15.10;88.00;;;;;;5016100;28;20512;-62
2022/10/10 08:09:53;;;;;;;17.38;11.55;;;15.10;87.40;;;;;;5014168;28;20184;-60
2022/10/10 08:12:19;;;;;;;12.00;10.10;;;15.20;87.30;;;;;;5016272;28;20412;-59
2022/10/10 08:14:44;;;;;;;11.60;9.40;;;15.20;87.20;;;;;;5014205;28;20037;-60
2022/10/10 08:17:10;;;;;;;12.00;10.02;;;15.30;87.20;;;;;;5013937;28;20505;-61
2022/10/10 08:19:35;;;;;;;14.13;10.25;;;15.30;87.00;;;;;;5013838;28;20056;-61
2022/10/10 08:22:01;;;;;;;12.90;9.15;;;15.40;86.70;;;;;;5014580;28;20552;-61
2022/10/10 08:24:27;;;;;;;12.45;8.80;;;15.40;86.70;;;;;;5013557;28;20025;-60
2022/10/10 08:26:52;;;;;;;11.13;8.80;;;15.40;86.60;;;;;;5012449;28;20041;-59
2022/10/10 08:29:18;;;;;;;12.07;9.18;;;15.50;86.40;;;;;;5013975;28;20501;-60
2022/10/10 08:31:44;;;;;;;12.77;8.90;;;15.50;86.30;;;;;;5013971;28;20049;-61
2022/10/10 08:34:09;;;;;;;13.20;8.98;;;15.60;86.20;;;;;;5014464;28;20132;-60
2022/10/10 08:36:35;;;;;;;10.98;9.15;;;15.60;86.00;;;;;;5015625;28;20034;-61
2022/10/10 08:39:02;;;;;;;11.95;9.02;;;15.70;86.20;;;;;;5014722;28;20133;-61
2022/10/10 08:41:50;;;;;;;14.68;8.98;;;15.70;86.20;;;;;;5016126;28;20117;-61
2022/10/10 08:44:37;;;;;;;11.18;8.70;;;15.70;85.90;;;;;;5017111;28;20103;-61
2022/10/10 08:47:14;;;;;;;12.85;8.70;;;15.80;86.00;;;;;;5015501;28;20045;-61
2022/10/10 08:49:51;;;;;;;11.20;9.15;;;15.90;85.90;;;;;;5014187;28;20120;-61
2022/10/10 08:52:35;;;;;;;14.68;8.70;;;15.90;85.70;;;;;;5014052;28;20619;-60
2022/10/10 08:55:06;;;;;;;12.35;8.77;;;16.00;86.50;;;;;;5013134;28;20101;-61
2022/10/10 08:57:48;;;;;;;14.48;9.13;;;16.00;85.60;;;;;;5016041;28;20045;-60
2022/10/10 09:00:20;;;;;;;12.00;9.07;;;16.10;85.40;;;;;;5013794;28;20609;-60
2022/10/10 09:02:55;;;;;;;10.65;8.25;;;16.10;85.20;;;;;;5016586;28;20048;-61
2022/10/10 09:05:28;;;;;;;8.98;7.75;;;16.20;85.00;;;;;;5013979;28;20045;-60
2022/10/10 09:08:16;;;;;;;13.23;7.97;;;16.20;84.80;;;;;;5010642;28;20808;-60
2022/10/10 09:11:09;;;;;;;10.35;7.95;;;16.30;84.90;;;;;;5016899;28;20128;-61
2022/10/10 09:14:11;;;;;;;11.07;7.20;;;16.30;84.60;;;;;;5018267;28;20444;-60
2022/10/10 09:16:48;;;;;;;10.77;7.57;;;16.40;84.80;;;;;;5002290;28;20041;-61
2022/10/10 09:19:40;;;;;;;12.38;7.72;;;16.40;85.00;;;;;;5019379;28;20179;-61
2022/10/10 09:22:13;;;;;;;9.77;7.60;;;16.50;84.90;;;;;;5017524;28;20076;-60
2022/10/10 09:25:03;;;;;;;8.20;7.05;;;16.60;85.00;;;;;;5012752;28;20038;-61
2022/10/10 09:27:36;;;;;;;9.18;7.38;;;16.70;84.80;;;;;;5017490;28;20124;-59
2022/10/10 09:30:06;;;;;;;10.38;7.22;;;16.70;84.60;;;;;;5016615;28;20037;-61
2022/10/10 09:32:35;;;;;;;11.10;7.47;;;16.80;84.60;;;;;;5017743;28;20597;-61
2022/10/10 09:35:00;;;;;;;9.10;6.90;;;16.90;84.80;;;;;;5015394;28;20123;-61
2022/10/10 09:37:37;;;;;;;9.82;8.07;;;16.90;84.60;;;;;;5021776;28;20065;-61
2022/10/10 09:40:10;;;;;;;11.18;7.10;;;17.00;84.00;;;;;;5021025;28;20033;-61
2022/10/10 09:42:37;;;;;;;8.32;6.88;;;17.10;84.10;;;;;;5019642;28;20034;-60
2022/10/10 09:45:18;;;;;;;8.68;6.53;;;17.20;83.80;;;;;;5021647;28;20496;-61
2022/10/10 09:47:44;;;;;;;10.63;6.82;;;17.20;83.50;;;;;;5020161;28;20147;-61
2022/10/10 09:50:14;;;;;;;10.70;7.00;;;17.30;83.70;;;;;;5021360;28;20572;-59
2022/10/10 09:52:40;;;;;;;10.27;6.95;;;17.40;83.40;;;;;;5020261;28;20048;-61
2022/10/10 09:55:25;;;;;;;11.00;7.07;;;17.50;83.30;;;;;;5018794;28;20424;-61
2022/10/10 09:57:53;;;;;;;9.35;6.78;;;17.60;82.60;;;;;;5019565;28;20026;-60
2022/10/10 10:00:18;;;;;;;12.10;6.43;;;17.60;82.70;;;;;;5019081;28;20041;-61
2022/10/10 10:03:08;;;;;;;9.20;6.70;;;17.70;82.40;;;;;;5020795;28;20045;-60
2022/10/10 10:05:34;;;;;;;9.32;6.13;;;17.70;81.90;;;;;;5014298;28;20552;-61
2022/10/10 10:08:00;;;;;;;8.10;5.88;;;17.80;81.90;;;;;;5021974;28;20461;-60
2022/10/10 10:10:28;;;;;;;8.77;6.20;;;17.80;81.80;;;;;;5020084;28;20038;-61
2022/10/10 10:12:55;;;;;;;10.23;6.13;;;17.80;81.40;;;;;;5018618;28;20045;-62
2022/10/10 10:15:23;;;;;;;9.20;5.43;;;17.90;81.30;;;;;;5020192;28;20034;-62
2022/10/10 10:18:09;;;;;;;9.88;6.00;;;17.90;81.30;;;;;;5019830;28;20452;-62
2022/10/10 10:20:38;;;;;;;6.35;5.63;;;18.00;80.80;;;;;;5016709;28;20414;-62
2022/10/10 10:23:03;;;;;;;8.82;5.22;;;18.00;81.20;;;;;;5018482;28;20509;-61
2022/10/10 10:25:36;;;;;;;6.78;5.75;;;18.10;81.20;;;;;;5019921;28;20039;-61
2022/10/10 10:28:11;;;;;;;6.97;5.63;;;18.20;80.80;;;;;;5016944;28;20053;-62
2022/10/10 10:30:42;;;;;;;7.03;5.43;;;18.20;80.60;;;;;;5017766;28;20042;-61
2022/10/10 10:33:36;;;;;;;6.75;5.55;;;18.30;80.30;;;;;;5020065;28;20069;-62
2022/10/10 10:36:07;;;;;;;6.03;4.70;;;18.30;80.00;;;;;;5019206;28;20480;-60
2022/10/10 10:38:43;;;;;;;11.20;5.35;;;18.40;80.40;;;;;;5018365;28;20501;-62
2022/10/10 10:41:18;;;;;;;7.32;5.60;;;18.40;79.60;;;;;;5019524;28;20041;-61
2022/10/10 10:43:53;;;;;;;;;;;18.50;79.60;;;;;;5018831;28;20079;-62
2022/10/10 10:46:34;;;;;;;7.95;5.10;;;18.60;79.80;;;;;;5017629;28;20490;-61
2022/10/10 10:49:20;;;;;;;7.22;5.10;;;18.60;78.90;;;;;;5018567;28;20328;-61
2022/10/10 10:51:45;;;;;;;5.40;4.75;;;18.60;79.40;;;;;;5018071;28;20048;-60
2022/10/10 10:54:30;;;;;;;8.40;5.10;;;18.70;79.60;;;;;;5018290;28;20037;-62
2022/10/10 10:57:14;;;;;;;7.22;5.18;;;18.70;78.80;;;;;;5019359;28;20045;-61
2022/10/10 11:00:01;;;;;;;5.07;4.55;;;18.70;78.70;;;;;;5018866;28;20068;-60
2022/10/10 11:02:32;;;;;;;7.50;4.43;;;18.80;79.10;;;;;;5014969;28;20064;-60
2022/10/10 11:05:22;;;;;;;9.95;4.47;;;18.90;79.80;;;;;;5019469;28;20041;-61
2022/10/10 11:07:47;;;;;;;5.35;3.80;;;18.90;78.60;;;;;;5018382;28;20033;-62
2022/10/10 11:10:19;;;;;;;7.55;4.20;;;18.90;78.90;;;;;;5018059;28;20520;-61
2022/10/10 11:12:44;;;;;;;8.68;4.30;;;18.90;78.60;;;;;;5017408;28;20551;-62
2022/10/10 11:15:26;;;;;;;6.82;4.47;;;19.00;78.70;;;;;;5017327;28;20042;-62
2022/10/10 11:18:01;;;;;;;4.40;3.90;;;19.00;78.00;;;;;;5018476;28;20033;-60
2022/10/10 11:20:40;;;;;;;5.30;4.05;;;19.00;78.20;;;;;;5017940;28;20045;-62
2022/10/10 11:23:42;;;;;;;5.22;3.47;;;19.10;78.40;;;;;;5017236;28;20557;-60
2022/10/10 11:26:25;;;;;;;8.50;5.40;;;19.10;78.00;;;;;;4972954;28;20392;-61
2022/10/10 11:29:11;;;;;;;7.93;4.72;;;19.20;77.50;;;;;;5013290;28;20038;-62
2022/10/10 11:32:10;;;;;;;8.77;4.03;;;19.20;76.90;;;;;;5016451;28;20393;-60
2022/10/10 11:34:50;;;;;;;5.80;4.03;;;19.30;76.60;;;;;;5017714;28;20563;-61
2022/10/10 11:37:23;;;;;;;7.25;4.45;;;19.40;77.00;;;;;;5018903;28;20037;-62
2022/10/10 11:39:54;;;;;;;8.93;4.70;;;19.40;76.80;;;;;;5017533;28;20088;-60
2022/10/10 11:42:32;;;;;;;6.95;4.45;;;19.40;76.20;;;;;;5018569;28;20059;-60
2022/10/10 11:45:11;;;;;;;6.20;4.10;;;19.50;76.30;;;;;;5018254;28;20041;-61
2022/10/10 11:47:55;;;;;;;7.25;4.10;;;19.50;76.30;;;;;;5018318;28;20045;-61
2022/10/10 11:50:25;;;;;;;4.60;4.20;;;19.50;76.40;;;;;;5017615;28;20038;-61
2022/10/10 11:53:16;;;;;;;10.40;4.03;;;19.50;76.00;;;;;;5016912;28;20030;-62
2022/10/10 11:55:44;;;;;;;6.20;4.38;;;19.50;75.40;;;;;;5014275;28;20033;-62
2022/10/10 11:58:10;;;;;;;7.05;4.35;;;19.50;76.00;;;;;;5017144;28;20400;-62
2022/10/10 12:00:53;;;;;;;6.35;4.70;;;19.60;76.20;;;;;;5017184;28;20041;-61
2022/10/10 12:03:19;;;;;;;5.70;3.78;;;19.60;75.50;;;;;;5015997;28;20041;-61
2022/10/10 12:05:59;;;;;;;7.05;4.57;;;19.60;76.10;;;;;;5017713;28;20034;-60
2022/10/10 12:08:31;;;;;;;5.10;3.70;;;19.60;75.80;;;;;;5018180;28;20348;-61
2022/10/10 12:11:16;;;;;;;5.75;3.78;;;19.60;75.70;;;;;;5017571;28;20230;-62
2022/10/10 12:13:46;;;;;;;5.90;3.25;;;19.60;75.70;;;;;;5019223;28;20030;-60
2022/10/10 12:16:16;;;;;;;4.45;3.30;;;19.60;75.80;;;;;;5018151;28;20058;-61
2022/10/10 12:18:59;;;;;;;6.85;3.13;;;19.70;75.60;;;;;;5017467;28;20129;-62
2022/10/10 12:21:27;;;;;;;5.15;2.80;;;19.70;75.00;;;;;;5018335;28;20030;-60
2022/10/10 12:24:08;;;;;;;3.20;2.85;;;19.70;75.10;;;;;;5018521;28;20034;-60
2022/10/10 12:26:52;;;;;;;6.18;2.83;;;19.70;74.50;;;;;;5017414;28;20061;-61
2022/10/10 12:29:54;;;;;;;6.22;2.70;;;19.70;74.10;;;;;;5015808;28;20053;-61
2022/10/10 12:32:20;;;;;;;6.15;2.92;;;19.70;74.20;;;;;;5016762;28;20137;-62
2022/10/10 12:34:48;;;;;;;4.70;2.88;;;19.70;75.00;;;;;;5016186;28;20116;-61
2022/10/10 12:37:29;;;;;;;6.88;2.78;;;19.70;74.60;;;;;;5018347;28;20044;-61
2022/10/10 12:40:06;;;;;;;5.80;2.60;;;19.70;73.70;;;;;;5010415;28;20042;-62
2022/10/10 12:42:47;;;;;;;3.00;2.45;;;19.70;74.10;;;;;;5015100;28;20029;-62
2022/10/10 12:45:28;;;;;;;7.43;2.90;;;19.70;73.90;;;;;;5019500;28;20030;-62
2022/10/10 12:47:55;;;;;;;4.20;2.67;;;19.70;73.90;;;;;;5020098;28;20126;-62
2022/10/10 12:50:37;;;;;;;4.75;2.70;;;19.70;74.60;;;;;;5021033;28;20485;-62
2022/10/10 12:53:18;;;;;;;15.95;3.00;;;19.70;74.40;;;;;;5017641;28;20034;-62
2022/10/10 12:55:53;;;;;;;7.07;3.20;;;19.70;74.40;;;;;;5020182;28;20094;-62
2022/10/10 12:58:21;;;;;;;;;;;19.80;74.60;;;;;;5019976;28;20040;-62